createdAt,value
2019-05-05T00:00:06.630Z,8.87
2019-05-05T00:03:04.278Z,8.43
2019-05-05T00:05:50.637Z,6.53
2019-05-05T00:08:36.780Z,6.60
2019-05-05T00:11:44.363Z,7.50
2019-05-05T00:14:37.886Z,8.57
2019-05-05T00:17:25.078Z,8.43
2019-05-05T00:20:11.384Z,10.30
2019-05-05T00:22:57.904Z,7.17
2019-05-05T00:25:44.755Z,8.27
2019-05-05T00:28:31.082Z,8.53
2019-05-05T00:31:17.582Z,8.63
2019-05-05T00:34:05.039Z,8.23
2019-05-05T00:36:55.223Z,11.40
2019-05-05T00:39:42.009Z,8.40
2019-05-05T00:42:35.212Z,9.40
2019-05-05T00:45:25.263Z,7.67
2019-05-05T00:48:24.509Z,4.83
2019-05-05T00:51:10.779Z,8.07
2019-05-05T00:53:57.779Z,8.00
2019-05-05T00:56:46.912Z,8.53
2019-05-05T00:59:34.754Z,6.27
2019-05-05T01:02:41.455Z,6.33
2019-05-05T01:05:52.017Z,5.37
2019-05-05T01:08:40.491Z,6.33
2019-05-05T01:11:27.089Z,4.63
2019-05-05T01:14:14.451Z,7.13
2019-05-05T01:17:01.100Z,5.17
2019-05-05T01:20:00.362Z,7.80
2019-05-05T01:22:35.299Z,4.17
2019-05-05T01:25:21.539Z,4.90
2019-05-05T01:28:07.952Z,5.33
2019-05-05T01:30:57.265Z,10.43
2019-05-05T01:34:01.174Z,6.77
2019-05-05T01:36:49.145Z,5.33
2019-05-05T01:39:54.228Z,6.90
2019-05-05T01:42:41.480Z,7.07
2019-05-05T01:45:27.535Z,4.93
2019-05-05T01:48:14.361Z,7.20
2019-05-05T01:51:00.739Z,6.00
2019-05-05T01:53:46.677Z,6.80
2019-05-05T01:56:35.049Z,4.47
2019-05-05T01:59:21.858Z,5.23
2019-05-05T02:02:08.274Z,7.17
2019-05-05T02:04:55.490Z,7.20
2019-05-05T02:07:44.899Z,8.37
2019-05-05T02:10:31.204Z,9.53
2019-05-05T02:13:17.491Z,6.10
2019-05-05T02:16:06.527Z,6.67
2019-05-05T02:18:54.412Z,7.03
2019-05-05T02:21:41.071Z,6.53
2019-05-05T02:24:29.467Z,8.13
2019-05-05T02:27:19.516Z,8.00
2019-05-05T02:30:30.491Z,3.50
2019-05-05T02:33:16.789Z,5.90
2019-05-05T02:36:05.919Z,9.33
2019-05-05T02:38:52.166Z,5.23
2019-05-05T02:41:38.410Z,5.33
2019-05-05T02:44:25.449Z,9.03
2019-05-05T02:47:19.020Z,6.60
2019-05-05T02:50:05.512Z,6.50
2019-05-05T02:52:53.516Z,4.83
2019-05-05T02:55:41.875Z,3.83
2019-05-05T02:58:28.663Z,4.80
2019-05-05T03:01:34.037Z,5.47
2019-05-05T03:06:57.434Z,6.60
2019-05-05T03:09:44.934Z,5.23
2019-05-05T03:12:34.501Z,4.00
2019-05-05T03:15:21.778Z,5.73
2019-05-05T03:18:09.384Z,4.83
2019-05-05T03:23:40.578Z,4.77
2019-05-05T03:29:34.777Z,5.83
2019-05-05T03:32:25.560Z,6.07
2019-05-05T03:35:13.477Z,5.00
2019-05-05T03:38:00.743Z,6.47
2019-05-05T03:44:05.043Z,4.80
2019-05-05T03:46:54.362Z,4.43
2019-05-05T03:49:44.077Z,5.60
2019-05-05T03:52:31.249Z,6.73
2019-05-05T03:55:18.925Z,3.67
2019-05-05T03:58:06.388Z,5.37
2019-05-05T04:00:54.919Z,5.97
2019-05-05T04:03:43.554Z,4.83
2019-05-05T04:06:51.271Z,6.40
2019-05-05T04:09:38.762Z,5.03
2019-05-05T04:12:26.335Z,4.37
2019-05-05T04:15:14.269Z,4.27
2019-05-05T04:21:33.483Z,4.50
2019-05-05T04:24:19.562Z,5.50
2019-05-05T04:30:15.737Z,5.57
2019-05-05T04:35:44.424Z,5.37
2019-05-05T04:38:32.105Z,4.80
2019-05-05T04:44:17.943Z,7.87
2019-05-05T04:50:04.796Z,7.63
2019-05-05T04:55:37.318Z,6.40
2019-05-05T04:58:24.947Z,7.27
2019-05-05T05:01:14.396Z,7.77
2019-05-05T05:07:13.874Z,7.67
2019-05-05T05:10:01.449Z,6.87
2019-05-05T05:12:53.877Z,7.67
2019-05-05T05:18:48.405Z,6.10
2019-05-05T05:21:38.038Z,6.17
2019-05-05T05:24:25.632Z,6.83
2019-05-05T05:27:13.843Z,9.13
2019-05-05T05:30:01.496Z,7.03
2019-05-05T05:32:50.598Z,7.37
2019-05-05T05:35:38.064Z,6.60
2019-05-05T05:38:25.678Z,7.77
2019-05-05T05:41:17.918Z,6.57
2019-05-05T05:44:27.698Z,7.93
2019-05-05T05:47:33.828Z,7.00
2019-05-05T05:50:38.188Z,6.83
2019-05-05T05:53:26.316Z,9.87
2019-05-05T05:56:15.549Z,11.57
2019-05-05T06:05:15.457Z,9.50
2019-05-05T06:08:05.391Z,9.37
2019-05-05T06:11:13.529Z,7.10
2019-05-05T06:14:04.017Z,8.00
2019-05-05T06:16:53.838Z,7.87
2019-05-05T06:19:41.149Z,8.33
2019-05-05T06:22:31.463Z,7.63
2019-05-05T06:25:18.103Z,11.50
2019-05-05T06:28:05.585Z,6.23
2019-05-05T06:30:54.707Z,10.83
2019-05-05T06:33:43.831Z,7.00
2019-05-05T06:36:33.877Z,7.13
2019-05-05T06:39:24.025Z,9.00
2019-05-05T06:42:30.285Z,9.00
2019-05-05T06:45:36.666Z,8.13
2019-05-05T06:48:24.518Z,8.27
2019-05-05T06:51:13.925Z,9.20
2019-05-05T06:54:01.263Z,9.40
2019-05-05T06:56:49.072Z,9.47
2019-05-05T06:59:36.609Z,9.87
2019-05-05T07:02:24.129Z,11.63
2019-05-05T07:05:30.434Z,9.37
2019-05-05T07:08:18.607Z,13.63
2019-05-05T07:14:14.242Z,13.43
2019-05-05T07:17:02.150Z,13.43
2019-05-05T07:19:49.713Z,15.90
2019-05-05T07:22:37.179Z,10.87
2019-05-05T07:25:24.761Z,8.27
2019-05-05T07:28:14.876Z,12.37
2019-05-05T07:31:04.494Z,13.57
2019-05-05T07:33:51.612Z,10.90
2019-05-05T07:36:57.996Z,16.90
2019-05-05T07:39:46.398Z,11.20
2019-05-05T07:42:33.944Z,19.47
2019-05-05T07:45:25.161Z,12.53
2019-05-05T07:48:04.981Z,15.83
2019-05-05T07:51:01.546Z,22.17
2019-05-05T07:53:44.050Z,15.60
2019-05-05T07:56:50.097Z,17.17
2019-05-05T08:02:34.143Z,19.47
2019-05-05T08:05:24.629Z,23.77
2019-05-05T08:08:13.953Z,20.90
2019-05-05T08:11:01.799Z,19.93
2019-05-05T08:13:49.597Z,22.23
2019-05-05T08:16:56.170Z,23.57
2019-05-05T08:20:03.979Z,20.17
2019-05-05T08:22:53.562Z,14.57
2019-05-05T08:28:45.954Z,17.57
2019-05-05T08:31:53.691Z,20.40
2019-05-05T08:34:55.104Z,17.73
2019-05-05T08:40:37.491Z,21.03
2019-05-05T08:46:33.975Z,18.97
2019-05-05T08:49:24.495Z,17.77
2019-05-05T08:55:01.991Z,23.13
2019-05-05T08:57:49.495Z,17.67
2019-05-05T09:00:39.508Z,19.23
2019-05-05T09:03:29.225Z,15.10
2019-05-05T09:06:17.016Z,18.70
2019-05-05T09:09:05.280Z,17.33
2019-05-05T09:11:54.235Z,15.93
2019-05-05T09:14:42.271Z,15.67
2019-05-05T09:20:19.319Z,14.63
2019-05-05T09:23:06.798Z,10.90
2019-05-05T09:29:34.730Z,13.27
2019-05-05T09:32:24.284Z,11.83
2019-05-05T09:35:13.899Z,15.73
2019-05-05T09:38:01.382Z,20.10
2019-05-05T09:40:49.151Z,23.47
2019-05-05T09:43:38.677Z,17.43
2019-05-05T09:46:26.242Z,12.53
2019-05-05T09:49:14.161Z,14.07
2019-05-05T09:52:04.807Z,15.80
2019-05-05T09:54:54.261Z,19.60
2019-05-05T09:57:43.634Z,14.63
2019-05-05T10:03:44.227Z,13.77
2019-05-05T10:06:33.628Z,17.83
2019-05-05T10:09:20.669Z,19.00
2019-05-05T10:12:08.250Z,15.10
2019-05-05T10:14:55.750Z,10.57
2019-05-05T10:17:45.789Z,10.87
2019-05-05T10:20:34.365Z,15.67
2019-05-05T10:26:30.248Z,14.13
2019-05-05T10:29:17.784Z,13.33
2019-05-05T10:32:05.311Z,13.77
2019-05-05T10:35:11.746Z,9.17
2019-05-05T10:37:59.182Z,14.63
2019-05-05T10:41:05.599Z,9.60
2019-05-05T10:43:54.203Z,13.47
2019-05-05T10:46:42.321Z,13.97
2019-05-05T10:49:30.033Z,13.37
2019-05-05T10:52:22.477Z,10.03
2019-05-05T10:55:10.005Z,15.23
2019-05-05T10:57:54.073Z,10.97
2019-05-05T11:00:41.027Z,15.77
2019-05-05T11:03:28.623Z,14.73
2019-05-05T11:06:16.090Z,13.13
2019-05-05T11:09:05.228Z,15.77
2019-05-05T11:11:52.718Z,12.93
2019-05-05T11:14:40.186Z,14.33
2019-05-05T11:17:27.768Z,7.33
2019-05-05T11:20:16.047Z,6.83
2019-05-05T11:23:04.843Z,9.80
2019-05-05T11:25:54.540Z,10.97
2019-05-05T11:28:44.377Z,8.13
2019-05-05T11:31:31.088Z,10.13
2019-05-05T11:37:29.945Z,9.17
2019-05-05T11:40:19.600Z,10.13
2019-05-05T11:43:07.160Z,7.70
2019-05-05T11:45:54.699Z,9.83
2019-05-05T11:48:44.576Z,11.13
2019-05-05T11:51:34.011Z,11.57
2019-05-05T11:54:21.572Z,8.83
2019-05-05T11:57:09.443Z,9.60
2019-05-05T11:59:57.039Z,12.23
2019-05-05T12:02:44.496Z,13.90
2019-05-05T12:05:33.668Z,13.03
2019-05-05T12:08:21.233Z,8.80
2019-05-05T12:11:11.343Z,7.67
2019-05-05T12:13:59.411Z,10.43
2019-05-05T12:16:49.975Z,14.70
2019-05-05T12:19:37.510Z,11.27
2019-05-05T12:22:25.013Z,9.67
2019-05-05T12:25:31.355Z,15.33
2019-05-05T12:28:37.743Z,10.50
2019-05-05T12:31:28.176Z,12.80
2019-05-05T12:34:16.151Z,14.70
2019-05-05T12:37:05.319Z,11.93
2019-05-05T12:39:54.585Z,14.27
2019-05-05T12:42:43.969Z,10.17
2019-05-05T12:51:24.416Z,9.83
2019-05-05T12:54:17.197Z,8.00
2019-05-05T12:57:04.622Z,9.10
2019-05-05T12:59:53.652Z,8.47
2019-05-05T13:02:41.410Z,14.47
2019-05-05T13:05:29.003Z,6.77
2019-05-05T13:08:16.518Z,12.57
2019-05-05T13:11:04.182Z,9.33
2019-05-05T13:13:51.868Z,11.80
2019-05-05T13:16:49.787Z,8.30
2019-05-05T13:19:49.646Z,8.87
2019-05-05T13:22:58.090Z,6.60
2019-05-05T13:26:07.333Z,8.27
2019-05-05T13:28:54.868Z,10.77
2019-05-05T13:31:44.199Z,6.83
2019-05-05T13:34:31.782Z,7.77
2019-05-05T13:37:19.339Z,5.90
2019-05-05T13:40:07.591Z,5.80
2019-05-05T13:42:55.273Z,6.10
2019-05-05T13:46:01.693Z,6.90
2019-05-05T13:48:49.238Z,8.37
2019-05-05T13:51:39.169Z,7.60
2019-05-05T13:54:26.789Z,6.83
2019-05-05T13:57:14.625Z,7.97
2019-05-05T14:00:03.800Z,6.73
2019-05-05T14:02:54.479Z,7.00
2019-05-05T14:05:43.685Z,9.90
2019-05-05T14:08:36.043Z,7.87
2019-05-05T14:11:21.468Z,6.43
2019-05-05T14:14:10.878Z,6.60
2019-05-05T14:17:04.118Z,6.07
2019-05-05T14:20:04.447Z,6.30
2019-05-05T14:22:41.015Z,6.03
2019-05-05T14:25:30.742Z,5.17
2019-05-05T14:28:18.387Z,6.00
2019-05-05T14:31:24.826Z,5.93
2019-05-05T14:37:44.437Z,5.93
2019-05-05T14:40:34.612Z,5.40
2019-05-05T14:43:23.866Z,6.37
2019-05-05T14:46:11.489Z,5.20
2019-05-05T14:49:01.768Z,6.90
2019-05-05T14:51:50.355Z,8.50
2019-05-05T14:54:39.965Z,8.97
2019-05-05T14:57:47.373Z,6.63
2019-05-05T15:00:39.834Z,8.97
2019-05-05T15:03:27.816Z,9.40
2019-05-05T15:06:21.480Z,10.57
2019-05-05T15:09:27.921Z,8.00
2019-05-05T15:12:34.330Z,9.13
2019-05-05T15:18:28.494Z,10.63
2019-05-05T15:21:16.323Z,8.40
2019-05-05T15:24:04.055Z,6.70
2019-05-05T15:26:55.109Z,7.50
2019-05-05T15:29:43.632Z,6.67
2019-05-05T15:32:34.251Z,8.80
2019-05-05T15:35:40.236Z,8.13
2019-05-05T15:38:27.721Z,7.73
2019-05-05T15:41:19.197Z,7.57
2019-05-05T15:44:06.967Z,4.47
2019-05-05T15:46:57.778Z,5.17
2019-05-05T15:49:45.912Z,7.20
2019-05-05T15:52:35.123Z,7.63
2019-05-05T15:55:24.523Z,9.23
2019-05-05T15:58:14.145Z,10.73
2019-05-05T16:01:03.784Z,7.83
2019-05-05T16:03:51.759Z,8.37
2019-05-05T16:06:39.868Z,8.27
2019-05-05T16:09:28.006Z,9.37
2019-05-05T16:12:15.683Z,6.13
2019-05-05T16:18:31.131Z,5.70
2019-05-05T16:21:37.526Z,7.20
2019-05-05T16:24:44.630Z,8.00
2019-05-05T16:27:33.596Z,7.23
2019-05-05T16:30:21.110Z,11.57
2019-05-05T16:33:09.043Z,7.97
2019-05-05T16:35:58.950Z,7.97
2019-05-05T16:38:47.586Z,7.20
2019-05-05T16:41:35.146Z,10.10
2019-05-05T16:44:23.442Z,9.53
2019-05-05T16:47:13.666Z,7.07
2019-05-05T16:50:01.514Z,8.83
2019-05-05T16:53:01.266Z,7.63
2019-05-05T16:59:03.571Z,9.03
2019-05-05T17:01:51.368Z,7.70
2019-05-05T17:04:39.352Z,8.57
2019-05-05T17:07:27.262Z,8.73
2019-05-05T17:10:14.885Z,12.83
2019-05-05T17:16:35.582Z,10.93
2019-05-05T17:19:41.991Z,8.23
2019-05-05T17:22:48.307Z,9.57
2019-05-05T17:25:35.961Z,8.37
2019-05-05T17:28:23.842Z,6.87
2019-05-05T17:34:20.657Z,6.13
2019-05-05T17:37:08.399Z,7.73
2019-05-05T17:43:36.853Z,8.73
2019-05-05T17:46:38.687Z,9.20
2019-05-05T17:49:45.132Z,12.73
2019-05-05T17:52:53.621Z,7.80
2019-05-05T17:55:41.967Z,7.80
2019-05-05T17:58:48.692Z,6.77
2019-05-05T18:01:36.215Z,5.53
2019-05-05T18:04:23.759Z,6.57
2019-05-05T18:10:23.989Z,13.30
2019-05-05T18:13:26.327Z,12.60
2019-05-05T18:16:14.028Z,9.20
2019-05-05T18:19:00.097Z,8.60
2019-05-05T18:22:03.466Z,11.27
2019-05-05T18:24:51.041Z,8.53
2019-05-05T18:27:41.445Z,11.17
2019-05-05T18:30:28.546Z,11.93
2019-05-05T18:33:14.688Z,8.03
2019-05-05T18:36:01.499Z,8.50
2019-05-05T18:38:47.794Z,9.97
2019-05-05T18:41:45.709Z,12.20
2019-05-05T18:44:36.126Z,7.47
2019-05-05T18:47:25.045Z,10.50
2019-05-05T18:50:13.525Z,14.53
2019-05-05T18:53:00.107Z,13.33
2019-05-05T18:55:47.327Z,12.07
2019-05-05T18:58:34.798Z,6.20
2019-05-05T19:01:44.560Z,9.43
2019-05-05T19:04:42.388Z,7.37
2019-05-05T19:07:38.009Z,10.33
2019-05-05T19:10:24.969Z,10.37
2019-05-05T19:13:13.523Z,10.70
2019-05-05T19:15:59.047Z,10.67
2019-05-05T19:18:46.115Z,6.20
2019-05-05T19:21:36.057Z,11.07
2019-05-05T19:24:23.022Z,11.03
2019-05-05T19:27:11.595Z,9.37
2019-05-05T19:29:58.211Z,14.43
2019-05-05T19:32:44.457Z,5.17
2019-05-05T19:35:41.925Z,8.83
2019-05-05T19:38:20.397Z,10.60
2019-05-05T19:41:06.819Z,13.17
2019-05-05T19:43:54.740Z,7.50
2019-05-05T19:46:47.767Z,9.43
2019-05-05T19:49:39.210Z,5.77
2019-05-05T19:52:25.282Z,7.77
2019-05-05T19:55:13.670Z,7.87
2019-05-05T19:57:59.406Z,5.33
2019-05-05T20:00:45.458Z,6.13
2019-05-05T20:03:36.159Z,6.00
2019-05-05T20:06:23.720Z,6.10
2019-05-05T20:09:10.569Z,7.13
2019-05-05T20:11:56.886Z,8.47
2019-05-05T20:14:46.000Z,6.97
2019-05-05T20:17:34.820Z,8.93
2019-05-05T20:20:21.047Z,9.60
2019-05-05T20:23:07.213Z,9.60
2019-05-05T20:25:53.771Z,5.80
2019-05-05T20:28:41.436Z,8.13
2019-05-05T20:31:27.871Z,9.57
2019-05-05T20:34:33.996Z,6.97
2019-05-05T20:37:23.787Z,9.80
2019-05-05T20:40:11.377Z,9.63
2019-05-05T20:42:59.025Z,6.03
2019-05-05T20:45:45.494Z,6.90
2019-05-05T20:48:31.891Z,5.87
2019-05-05T20:51:17.876Z,8.53
2019-05-05T20:54:04.744Z,8.43
2019-05-05T20:56:54.041Z,8.47
2019-05-05T20:59:40.312Z,7.47
2019-05-05T21:02:26.468Z,6.43
2019-05-05T21:05:14.568Z,7.23
2019-05-05T21:08:01.712Z,5.73
2019-05-05T21:10:47.782Z,11.43
2019-05-05T21:13:34.591Z,5.47
2019-05-05T21:16:23.607Z,6.80
2019-05-05T21:19:09.377Z,9.70
2019-05-05T21:21:57.878Z,5.23
2019-05-05T21:24:45.460Z,9.77
2019-05-05T21:27:34.065Z,6.70
2019-05-05T21:30:20.720Z,7.63
2019-05-05T21:33:06.897Z,8.47
2019-05-05T21:35:55.043Z,7.67
2019-05-05T21:38:40.952Z,11.93
2019-05-05T21:41:27.178Z,7.77
2019-05-05T21:44:14.639Z,8.60
2019-05-05T21:47:01.038Z,8.47
2019-05-05T21:49:47.271Z,9.10
2019-05-05T21:52:55.268Z,8.40
2019-05-05T21:56:06.299Z,7.37
2019-05-05T21:58:53.736Z,6.40
2019-05-05T22:01:41.017Z,7.13
2019-05-05T22:04:27.243Z,11.50
2019-05-05T22:07:14.524Z,9.23
2019-05-05T22:10:01.012Z,7.67
2019-05-05T22:12:47.352Z,7.47
2019-05-05T22:15:35.576Z,9.83
2019-05-05T22:18:21.277Z,15.77
2019-05-05T22:21:22.324Z,8.73
2019-05-05T22:24:19.351Z,11.37
2019-05-05T22:27:05.602Z,11.40
2019-05-05T22:29:53.967Z,11.57
2019-05-05T22:32:39.544Z,7.90
2019-05-05T22:35:25.775Z,10.10
2019-05-05T22:38:13.730Z,13.93
2019-05-05T22:41:05.234Z,13.30
2019-05-05T22:43:51.390Z,10.17
2019-05-05T22:46:37.826Z,9.60
2019-05-05T22:49:24.329Z,12.73
2019-05-05T22:52:14.479Z,8.67
2019-05-05T22:55:00.733Z,12.20
2019-05-05T22:57:46.709Z,7.83
2019-05-05T23:00:34.649Z,8.93
2019-05-05T23:03:27.725Z,14.00
2019-05-05T23:06:17.512Z,12.20
2019-05-05T23:09:04.161Z,10.37
2019-05-05T23:11:50.316Z,9.60
2019-05-05T23:14:36.544Z,10.60
2019-05-05T23:17:43.699Z,10.80
2019-05-05T23:20:36.141Z,8.90
2019-05-05T23:23:34.166Z,9.67
2019-05-05T23:26:21.673Z,9.67
2019-05-05T23:29:08.002Z,7.93
2019-05-05T23:31:54.204Z,6.97
2019-05-05T23:34:41.357Z,8.83
2019-05-05T23:37:27.266Z,6.63
2019-05-05T23:40:16.109Z,10.13
2019-05-05T23:43:04.372Z,7.67
2019-05-05T23:45:50.133Z,10.30
2019-05-05T23:48:36.027Z,7.20
2019-05-05T23:51:24.367Z,7.33
2019-05-05T23:54:10.610Z,8.13
2019-05-05T23:56:56.578Z,7.13
2019-05-05T23:59:44.127Z,10.50
